Time;durP1;ratioP1;P1;durP2;ratioP2;P2;SDS_P1;SDS_P2;PMS_P1;PMS_P2;Temp;Humidity;BMP_temperature;BMP_pressure;BME280_temperature;BME280_humidity;BME280_pressure;Samples;Min_cycle;Max_cycle;Signal;HPM_P1;HPM_P2
2023/11/03 00:00:02;;;;;;;4.80;1.50;;;10.50;1.00;;;;;;5075252;28;20435;-83
2023/11/03 00:02:30;;;;;;;8.33;1.40;;;10.50;99.90;;;;;;5068261;28;20181;-84
2023/11/03 00:04:58;;;;;;;6.47;1.63;;;10.50;99.90;;;;;;5051875;28;20456;-84
2023/11/03 00:07:24;;;;;;;3.57;1.40;;;10.50;99.90;;;;;;5040276;28;20436;-84
2023/11/03 00:09:51;;;;;;;5.10;1.10;;;10.50;99.90;;;;;;5057145;28;20937;-84
2023/11/03 00:12:17;;;;;;;5.63;1.47;;;10.50;99.90;;;;;;5048806;28;20435;-82
2023/11/03 00:14:43;;;;;;;9.73;1.50;;;10.50;99.90;;;;;;5060738;28;20459;-83
2023/11/03 00:17:09;;;;;;;5.93;1.77;;;10.60;99.90;;;;;;5055159;28;20590;-83
2023/11/03 00:19:35;;;;;;;7.00;1.60;;;10.50;99.90;;;;;;5057019;28;20478;-84
2023/11/03 00:22:01;;;;;;;5.63;2.07;;;10.50;99.90;;;;;;5039860;28;20452;-84
2023/11/03 00:24:26;;;;;;;3.17;2.00;;;10.50;5.80;;;;;;5051358;28;20178;-82
2023/11/03 00:26:54;;;;;;;6.60;1.07;;;10.50;49.90;;;;;;5057666;28;20193;-84
2023/11/03 00:29:20;;;;;;;5.80;1.50;;;10.50;98.00;;;;;;5054711;28;20570;-84
2023/11/03 00:31:46;;;;;;;6.07;1.70;;;10.50;1.30;;;;;;5034229;28;20461;-83
2023/11/03 00:34:13;;;;;;;13.23;1.23;;;10.50;68.80;;;;;;5044498;28;20468;-84
2023/11/03 00:36:39;;;;;;;4.17;1.30;;;10.40;91.00;;;;;;5038070;28;20182;-84
2023/11/03 00:39:07;;;;;;;6.23;1.33;;;10.40;49.10;;;;;;5060254;28;20476;-84
2023/11/03 00:41:32;;;;;;;5.37;1.80;;;10.40;33.20;;;;;;5056488;28;20428;-83
2023/11/03 00:43:58;;;;;;;4.10;1.20;;;10.40;1.00;;;;;;5056510;28;20435;-84
2023/11/03 00:46:23;;;;;;;8.20;1.30;;;10.40;1.00;;;;;;5056663;28;20194;-83
2023/11/03 00:48:49;;;;;;;2.03;1.03;;;10.40;1.00;;;;;;5056603;28;20205;-83
2023/11/03 00:51:14;;;;;;;5.43;1.37;;;10.40;1.00;;;;;;5057308;28;20257;-85
2023/11/03 00:53:40;;;;;;;3.20;1.20;;;10.40;1.00;;;;;;5037576;28;20206;-83
2023/11/03 00:56:06;;;;;;;4.13;1.70;;;10.40;1.00;;;;;;5037690;28;20643;-83
2023/11/03 00:58:31;;;;;;;4.77;1.37;;;10.40;1.00;;;;;;5049185;28;20226;-85
2023/11/03 01:00:58;;;;;;;2.80;1.00;;;10.40;1.00;;;;;;5056406;28;20185;-83
2023/11/03 01:03:24;;;;;;;2.60;1.10;;;10.40;1.00;;;;;;5057399;28;20552;-83
2023/11/03 01:05:49;;;;;;;2.97;1.10;;;10.40;1.00;;;;;;5043726;28;20429;-84
2023/11/03 01:08:15;;;;;;;2.60;1.20;;;10.40;1.00;;;;;;5053922;28;20216;-83
2023/11/03 01:10:41;;;;;;;4.37;1.20;;;10.40;1.00;;;;;;5048775;28;20675;-83
2023/11/03 01:13:10;;;;;;;5.00;1.20;;;10.40;1.00;;;;;;5066337;28;20296;-84
2023/11/03 01:15:36;;;;;;;4.67;1.40;;;10.40;1.00;;;;;;5064347;28;20659;-84
2023/11/03 01:18:04;;;;;;;2.70;0.93;;;10.40;1.00;;;;;;5032978;28;20459;-85
2023/11/03 01:20:30;;;;;;;4.73;1.50;;;10.40;1.00;;;;;;5049497;28;20443;-84
2023/11/03 01:22:55;;;;;;;2.00;0.90;;;10.40;99.90;;;;;;5053224;28;20428;-83
2023/11/03 01:25:24;;;;;;;4.57;1.33;;;10.40;99.90;;;;;;5059579;28;20975;-84
2023/11/03 01:27:50;;;;;;;2.37;1.10;;;10.40;1.00;;;;;;5058014;28;20229;-86
2023/11/03 01:30:17;;;;;;;5.20;1.03;;;10.40;99.90;;;;;;5067246;28;20453;-84
2023/11/03 01:32:43;;;;;;;6.90;1.00;;;10.50;99.90;;;;;;5060911;28;20447;-83
2023/11/03 01:35:09;;;;;;;6.97;1.77;;;10.50;99.90;;;;;;5059046;28;20460;-86
2023/11/03 01:37:35;;;;;;;2.47;1.00;;;10.50;99.90;;;;;;5068833;28;20531;-84
2023/11/03 01:40:07;;;;;;;5.40;1.80;;;10.50;99.90;;;;;;5038831;28;20432;-84
2023/11/03 01:42:34;;;;;;;2.73;1.13;;;10.40;99.90;;;;;;5062601;28;20938;-84
2023/11/03 01:44:59;;;;;;;5.00;1.30;;;10.40;99.90;;;;;;5062681;28;20598;-86
2023/11/03 01:47:25;;;;;;;3.80;1.00;;;10.40;99.90;;;;;;5054407;28;20483;-85
2023/11/03 01:49:50;;;;;;;2.90;1.67;;;10.40;99.90;;;;;;5065112;28;20340;-83
2023/11/03 01:52:16;;;;;;;5.93;1.07;;;10.40;99.90;;;;;;5062109;28;20650;-84
2023/11/03 01:54:42;;;;;;;2.97;1.10;;;10.40;99.90;;;;;;5054580;28;20228;-83
2023/11/03 01:57:09;;;;;;;3.17;1.17;;;10.30;99.90;;;;;;5066575;28;20247;-84
2023/11/03 01:59:34;;;;;;;5.70;1.30;;;10.30;99.90;;;;;;5060612;28;20455;-83
2023/11/03 02:02:03;;;;;;;1.90;0.70;;;10.30;99.90;;;;;;5042294;28;20960;-82
2023/11/03 02:04:29;;;;;;;2.00;0.87;;;10.30;1.00;;;;;;5080036;28;20225;-83
2023/11/03 02:06:54;;;;;;;2.07;1.03;;;10.30;1.00;;;;;;5078224;28;20461;-83
2023/11/03 02:09:20;;;;;;;3.47;1.10;;;10.30;1.00;;;;;;5073277;28;20195;-84
2023/11/03 02:11:48;;;;;;;4.10;1.00;;;10.30;1.00;;;;;;5082040;28;20300;-84
2023/11/03 02:14:14;;;;;;;3.43;1.07;;;10.30;1.00;;;;;;5068891;28;20251;-84
2023/11/03 02:16:40;;;;;;;3.50;1.63;;;10.30;1.00;;;;;;5070667;28;20437;-85
2023/11/03 02:19:10;;;;;;;7.60;1.10;;;10.30;1.00;;;;;;5043689;28;20460;-86
2023/11/03 02:21:38;;;;;;;4.10;1.30;;;10.30;1.00;;;;;;5074429;28;20431;-85
2023/11/03 02:24:06;;;;;;;4.93;1.27;;;10.30;1.00;;;;;;5061004;28;20463;-85
2023/11/03 02:26:31;;;;;;;3.20;1.03;;;10.30;1.00;;;;;;5064802;28;21009;-86
2023/11/03 02:28:57;;;;;;;3.07;1.10;;;10.30;1.00;;;;;;5065945;28;20463;-86
2023/11/03 02:31:24;;;;;;;3.63;1.37;;;10.30;1.00;;;;;;5066647;28;20208;-85
2023/11/03 02:33:49;;;;;;;2.23;1.00;;;10.30;1.00;;;;;;5077490;28;20202;-84
2023/11/03 02:36:15;;;;;;;4.37;1.07;;;10.30;1.00;;;;;;5065632;28;20502;-86
2023/11/03 02:38:41;;;;;;;3.53;1.27;;;10.30;1.00;;;;;;5074491;28;20218;-85
2023/11/03 02:41:07;;;;;;;6.00;1.10;;;10.30;1.00;;;;;;5075938;28;20450;-86
2023/11/03 02:43:33;;;;;;;3.80;1.30;;;10.30;1.00;;;;;;5073284;28;20186;-86
2023/11/03 02:45:58;;;;;;;2.30;1.17;;;10.30;1.00;;;;;;5072577;28;20443;-85
2023/11/03 02:48:24;;;;;;;2.40;1.00;;;10.30;1.00;;;;;;5061687;28;20205;-86
2023/11/03 02:50:49;;;;;;;3.93;1.37;;;10.30;1.00;;;;;;5047474;28;20220;-83
2023/11/03 02:53:15;;;;;;;3.47;1.13;;;10.30;1.00;;;;;;5043946;28;20228;-86
2023/11/03 02:55:40;;;;;;;1.83;1.13;;;10.30;1.00;;;;;;5052398;28;20186;-85
2023/11/03 02:58:07;;;;;;;3.40;1.30;;;10.30;1.00;;;;;;5066132;28;20230;-83
2023/11/03 03:00:34;;;;;;;2.37;1.00;;;10.30;1.00;;;;;;5066859;28;20205;-85
2023/11/03 03:03:00;;;;;;;4.93;0.90;;;10.30;1.00;;;;;;5057798;28;20429;-85
2023/11/03 03:05:28;;;;;;;3.30;1.23;;;10.30;1.00;;;;;;5050208;28;20598;-85
2023/11/03 03:07:54;;;;;;;3.73;1.00;;;10.30;1.00;;;;;;5046382;28;20216;-85
2023/11/03 03:10:19;;;;;;;5.50;1.50;;;10.30;1.00;;;;;;5046751;28;20503;-85
2023/11/03 03:12:47;;;;;;;2.80;1.20;;;10.30;1.00;;;;;;5036922;28;20198;-85
2023/11/03 03:15:13;;;;;;;4.67;1.10;;;10.30;1.00;;;;;;5065126;28;20187;-84
2023/11/03 03:17:38;;;;;;;2.80;1.20;;;10.30;1.00;;;;;;5064980;28;20455;-85
2023/11/03 03:20:05;;;;;;;3.83;1.00;;;10.30;1.00;;;;;;5043925;28;20196;-84
2023/11/03 03:22:31;;;;;;;4.73;1.50;;;10.30;1.00;;;;;;5062668;28;20218;-85
2023/11/03 03:24:56;;;;;;;8.33;1.30;;;10.30;1.00;;;;;;5065872;28;20438;-83
2023/11/03 03:27:22;;;;;;;4.80;1.90;;;10.30;1.00;;;;;;5067411;28;20189;-83
2023/11/03 03:29:47;;;;;;;7.20;1.43;;;10.30;1.00;;;;;;5068621;28;20201;-83
2023/11/03 03:32:13;;;;;;;8.47;1.20;;;10.40;1.00;;;;;;5074736;28;20183;-85
2023/11/03 03:34:38;;;;;;;6.93;1.93;;;10.40;1.00;;;;;;5069315;28;20212;-83
2023/11/03 03:37:04;;;;;;;2.27;1.10;;;10.40;1.00;;;;;;5037331;28;20181;-86
2023/11/03 03:39:29;;;;;;;4.90;1.43;;;10.40;1.00;;;;;;5064802;28;20232;-85
2023/11/03 03:41:55;;;;;;;3.60;1.43;;;10.40;1.00;;;;;;5071013;28;20718;-83
2023/11/03 03:44:21;;;;;;;5.00;1.60;;;10.30;1.00;;;;;;5061625;28;20259;-83
2023/11/03 03:46:47;;;;;;;6.00;1.20;;;10.40;1.00;;;;;;5069706;28;20174;-83
2023/11/03 03:49:12;;;;;;;7.53;1.93;;;10.30;1.00;;;;;;5064706;28;20524;-83
2023/11/03 03:51:38;;;;;;;5.50;1.00;;;10.30;1.00;;;;;;5068286;28;20223;-84
2023/11/03 03:54:03;;;;;;;5.77;1.80;;;10.30;1.00;;;;;;5064856;28;20259;-84
2023/11/03 03:56:29;;;;;;;8.10;1.43;;;10.30;1.00;;;;;;5069337;28;20650;-85
2023/11/03 03:58:55;;;;;;;5.60;1.30;;;10.30;1.00;;;;;;5070760;28;20205;-82
2023/11/03 04:01:22;;;;;;;9.30;1.57;;;10.30;1.00;;;;;;5060306;28;20205;-84
2023/11/03 04:03:47;;;;;;;6.77;1.60;;;10.30;1.00;;;;;;5033630;28;20925;-84
2023/11/03 04:06:13;;;;;;;3.23;1.23;;;10.30;9.90;;;;;;5058425;28;20432;-82
2023/11/03 04:08:38;;;;;;;7.13;2.30;;;10.20;66.90;;;;;;5075871;28;20213;-84
2023/11/03 04:11:05;;;;;;;4.20;1.60;;;10.20;75.10;;;;;;5057075;28;20251;-83
2023/11/03 04:13:30;;;;;;;5.43;1.40;;;10.10;90.00;;;;;;5063928;28;20202;-83
2023/11/03 04:15:56;;;;;;;3.87;1.70;;;10.10;99.90;;;;;;5065173;28;20860;-83
2023/11/03 04:18:22;;;;;;;4.83;1.57;;;10.10;99.90;;;;;;5042846;28;20981;-83
2023/11/03 04:20:47;;;;;;;11.10;2.00;;;10.10;99.90;;;;;;5070258;28;20255;-83
2023/11/03 04:23:13;;;;;;;7.10;2.00;;;10.10;99.90;;;;;;5065669;28;20439;-83
2023/11/03 04:25:39;;;;;;;6.30;1.63;;;10.00;99.90;;;;;;5071771;28;20440;-85
2023/11/03 04:28:09;;;;;;;6.90;2.53;;;10.00;99.90;;;;;;5061240;28;20205;-84
2023/11/03 04:30:35;;;;;;;6.73;1.93;;;10.00;99.90;;;;;;5068021;28;20537;-83
2023/11/03 04:33:02;;;;;;;10.87;2.37;;;10.00;99.90;;;;;;5062485;28;20471;-83
2023/11/03 04:35:28;;;;;;;4.90;1.63;;;10.00;99.90;;;;;;5065897;28;20432;-82
2023/11/03 04:37:54;;;;;;;5.50;1.40;;;9.90;99.90;;;;;;5074748;28;20851;-83
2023/11/03 04:40:21;;;;;;;11.73;1.70;;;9.90;99.90;;;;;;5073210;28;20619;-83
2023/11/03 04:42:47;;;;;;;5.80;1.83;;;9.90;99.90;;;;;;5043718;28;20428;-82
2023/11/03 04:45:12;;;;;;;6.73;1.70;;;9.90;99.90;;;;;;5040032;28;20448;-83
2023/11/03 04:47:38;;;;;;;5.67;1.60;;;9.90;1.00;;;;;;5064932;28;20420;-83
2023/11/03 04:50:06;;;;;;;5.57;1.63;;;9.90;1.00;;;;;;5060045;28;20306;-84
2023/11/03 04:52:31;;;;;;;4.27;1.70;;;9.90;1.00;;;;;;5040065;28;20182;-83
2023/11/03 04:54:58;;;;;;;8.80;2.27;;;9.90;1.00;;;;;;5048103;28;20471;-85
2023/11/03 04:57:23;;;;;;;7.70;2.10;;;9.90;99.90;;;;;;5039669;28;20186;-84
2023/11/03 04:59:49;;;;;;;17.10;2.20;;;9.90;99.90;;;;;;5068349;28;20463;-83
2023/11/03 05:02:17;;;;;;;8.70;1.93;;;9.90;99.90;;;;;;5060088;28;20178;-83
2023/11/03 05:04:42;;;;;;;7.77;1.63;;;9.80;1.00;;;;;;5040266;28;20902;-84
2023/11/03 05:07:08;;;;;;;9.60;2.10;;;9.80;1.00;;;;;;5056858;28;20476;-84
2023/11/03 05:09:36;;;;;;;7.57;2.23;;;9.80;1.00;;;;;;5068288;28;20236;-84
2023/11/03 05:12:03;;;;;;;5.03;1.90;;;9.80;1.00;;;;;;5045042;28;20194;-83
2023/11/03 05:14:29;;;;;;;8.13;2.40;;;9.80;1.00;;;;;;5054355;28;21016;-84
2023/11/03 05:16:55;;;;;;;8.77;2.30;;;9.80;1.00;;;;;;5067002;28;20953;-83
2023/11/03 05:19:20;;;;;;;6.80;1.87;;;9.80;1.00;;;;;;5034557;28;20448;-82
2023/11/03 05:21:46;;;;;;;6.50;1.70;;;9.80;1.00;;;;;;5060056;28;20456;-81
2023/11/03 05:24:12;;;;;;;9.60;2.23;;;9.80;1.00;;;;;;5065223;28;20543;-83
2023/11/03 05:26:37;;;;;;;5.73;2.30;;;9.80;1.00;;;;;;5054565;28;20195;-83
2023/11/03 05:29:03;;;;;;;9.27;2.30;;;9.70;1.00;;;;;;5068270;28;20703;-83
2023/11/03 05:31:29;;;;;;;7.03;2.07;;;9.70;1.00;;;;;;5043419;28;20230;-83
2023/11/03 05:33:56;;;;;;;6.83;2.00;;;9.70;1.00;;;;;;5062458;28;20478;-83
2023/11/03 05:36:22;;;;;;;10.37;1.70;;;9.70;1.00;;;;;;5060123;28;20439;-83
2023/11/03 05:38:48;;;;;;;8.17;2.07;;;9.70;1.00;;;;;;5059699;28;20472;-84
2023/11/03 05:41:14;;;;;;;11.43;1.70;;;9.70;1.00;;;;;;5064407;28;20432;-83
2023/11/03 05:43:39;;;;;;;4.60;1.60;;;9.70;1.00;;;;;;5070014;28;20178;-83
2023/11/03 05:46:05;;;;;;;4.90;1.80;;;9.70;1.00;;;;;;5067268;28;20441;-83
2023/11/03 05:48:30;;;;;;;6.00;2.10;;;9.70;1.00;;;;;;5060925;28;20229;-83
2023/11/03 05:50:56;;;;;;;4.50;1.70;;;9.70;1.00;;;;;;5059073;28;20189;-83
2023/11/03 05:53:22;;;;;;;6.17;2.03;;;9.70;1.00;;;;;;5059169;28;20333;-83
2023/11/03 05:55:47;;;;;;;10.67;2.13;;;9.70;1.00;;;;;;5041367;28;20252;-83
2023/11/03 05:58:13;;;;;;;11.10;3.63;;;9.70;1.00;;;;;;5063657;28;20460;-83
2023/11/03 06:00:38;;;;;;;8.37;2.00;;;9.70;1.00;;;;;;5066734;28;20701;-83
2023/11/03 06:03:04;;;;;;;8.70;2.40;;;9.70;1.00;;;;;;5058990;28;20262;-83
2023/11/03 06:05:29;;;;;;;8.03;1.73;;;9.70;1.00;;;;;;5051236;28;20244;-83
2023/11/03 06:07:55;;;;;;;4.57;1.80;;;9.70;1.00;;;;;;5056705;28;20206;-83
2023/11/03 06:10:20;;;;;;;5.73;1.67;;;9.70;43.60;;;;;;5035185;28;20195;-82
2023/11/03 06:12:46;;;;;;;4.90;1.33;;;9.70;69.00;;;;;;5056438;28;20198;-83
2023/11/03 06:15:13;;;;;;;6.73;1.73;;;9.60;22.70;;;;;;5075117;28;20188;-83
2023/11/03 06:17:39;;;;;;;4.87;1.63;;;9.70;1.00;;;;;;5055148;28;20182;-83
2023/11/03 06:20:05;;;;;;;3.27;1.27;;;9.70;1.00;;;;;;5069059;28;20437;-82
2023/11/03 06:22:31;;;;;;;5.80;1.20;;;9.70;1.00;;;;;;5056185;28;20470;-83
2023/11/03 06:24:57;;;;;;;5.53;1.80;;;9.70;1.00;;;;;;5059411;28;20466;-85
2023/11/03 06:27:23;;;;;;;7.30;1.83;;;9.70;1.00;;;;;;5067064;28;20471;-83
2023/11/03 06:29:48;;;;;;;3.80;1.77;;;9.70;1.00;;;;;;5069411;28;20259;-83
2023/11/03 06:32:14;;;;;;;6.17;1.73;;;9.70;1.00;;;;;;5064284;28;20177;-85
2023/11/03 06:34:39;;;;;;;9.33;1.67;;;9.70;1.00;;;;;;5060705;28;20289;-83
2023/11/03 06:37:05;;;;;;;5.53;1.53;;;9.80;1.00;;;;;;5057809;28;20186;-83
2023/11/03 06:39:31;;;;;;;8.30;1.70;;;9.80;99.90;;;;;;5055845;28;20222;-84
2023/11/03 06:41:56;;;;;;;4.77;2.33;;;9.90;99.90;;;;;;5057004;28;20443;-84
2023/11/03 06:44:22;;;;;;;4.90;1.40;;;10.00;99.90;;;;;;5073114;28;20187;-83
2023/11/03 06:46:48;;;;;;;7.03;2.13;;;10.20;93.60;;;;;;5061913;28;20231;-83
2023/11/03 06:49:13;;;;;;;3.40;1.30;;;10.30;1.00;;;;;;5061207;28;20229;-84
2023/11/03 06:51:44;;;;;;;3.00;1.10;;;10.50;1.00;;;;;;5067476;28;20217;-80
2023/11/03 06:54:10;;;;;;;4.37;1.43;;;10.70;99.90;;;;;;5059300;28;20208;-83
2023/11/03 06:56:36;;;;;;;6.93;1.30;;;10.90;99.90;;;;;;5052575;28;20865;-83
2023/11/03 06:59:02;;;;;;;6.50;2.20;;;11.10;99.90;;;;;;5049734;28;20722;-83
2023/11/03 07:01:27;;;;;;;4.10;1.53;;;11.40;99.90;;;;;;5051459;28;20437;-84
2023/11/03 07:03:53;;;;;;;5.20;1.40;;;11.60;37.00;;;;;;5055947;28;20193;-84
2023/11/03 07:06:20;;;;;;;4.43;1.73;;;11.80;1.00;;;;;;5063227;28;20182;-83
2023/11/03 07:08:46;;;;;;;9.03;1.70;;;12.40;1.00;;;;;;5060515;28;20190;-85
2023/11/03 07:11:12;;;;;;;4.23;1.37;;;13.40;1.00;;;;;;5063129;28;20496;-83
2023/11/03 07:13:37;;;;;;;3.63;1.97;;;14.40;1.00;;;;;;5066184;28;20472;-85
2023/11/03 07:16:07;;;;;;;4.10;1.20;;;15.40;99.90;;;;;;5060926;28;20622;-84
2023/11/03 07:18:34;;;;;;;5.93;1.60;;;16.40;99.90;;;;;;5068462;28;20204;-84
2023/11/03 07:21:00;;;;;;;3.10;1.13;;;17.60;99.90;;;;;;5072513;28;20420;-84
2023/11/03 07:23:26;;;;;;;5.23;1.30;;;18.50;99.90;;;;;;5067337;28;20447;-85
2023/11/03 07:25:53;;;;;;;4.33;1.50;;;19.60;99.90;;;;;;5069741;28;20445;-83
2023/11/03 07:28:19;;;;;;;5.93;1.43;;;20.20;99.90;;;;;;5053470;28;20445;-81
2023/11/03 07:30:44;;;;;;;6.73;2.03;;;21.10;99.90;;;;;;5060927;28;20480;-82
2023/11/03 07:33:10;;;;;;;7.47;1.80;;;21.80;99.90;;;;;;5061882;28;20269;-83
2023/11/03 07:35:36;;;;;;;8.30;2.10;;;21.60;99.90;;;;;;5061954;28;20242;-83
2023/11/03 07:38:03;;;;;;;6.80;1.90;;;21.40;99.90;;;;;;5066158;28;20281;-83
2023/11/03 07:40:29;;;;;;;5.27;1.60;;;21.70;99.90;;;;;;5043432;28;20544;-82
2023/11/03 07:42:55;;;;;;;3.60;1.40;;;22.20;99.90;;;;;;5058887;28;20911;-81
2023/11/03 07:45:23;;;;;;;6.67;1.87;;;22.30;99.90;;;;;;5048377;28;20552;-81
2023/11/03 07:47:51;;;;;;;6.10;1.37;;;22.70;99.90;;;;;;5056483;28;20178;-81
2023/11/03 07:50:19;;;;;;;3.27;1.63;;;23.30;99.90;;;;;;5055719;28;20860;-81
2023/11/03 07:52:46;;;;;;;6.93;2.10;;;23.80;99.90;;;;;;5054988;28;20431;-83
2023/11/03 07:55:15;;;;;;;5.00;1.60;;;24.40;99.90;;;;;;5055414;28;20853;-83
2023/11/03 07:57:41;;;;;;;9.30;1.90;;;25.10;99.90;;;;;;5062035;28;20853;-83
2023/11/03 08:00:09;;;;;;;4.80;1.63;;;25.70;99.90;;;;;;5062045;28;20449;-84
2023/11/03 08:02:38;;;;;;;5.50;1.80;;;26.10;99.90;;;;;;5055402;28;20430;-84
2023/11/03 08:05:06;;;;;;;6.53;1.97;;;26.40;99.90;;;;;;5051275;28;20940;-84
2023/11/03 08:07:36;;;;;;;7.00;2.03;;;26.60;99.90;;;;;;5046273;28;20587;-83
2023/11/03 08:10:03;;;;;;;5.87;1.57;;;27.20;99.90;;;;;;5035660;28;20446;-83
2023/11/03 08:12:33;;;;;;;6.27;1.70;;;27.50;99.90;;;;;;5039512;28;20458;-84
2023/11/03 08:14:59;;;;;;;5.20;1.60;;;27.00;99.90;;;;;;5052059;28;20494;-85
2023/11/03 08:17:25;;;;;;;4.80;1.53;;;27.20;99.90;;;;;;5056023;28;20441;-84
2023/11/03 08:19:51;;;;;;;4.40;2.20;;;27.00;99.90;;;;;;5054182;28;20829;-84
2023/11/03 08:22:17;;;;;;;6.67;2.10;;;26.40;99.90;;;;;;5058293;28;20502;-83
2023/11/03 08:24:43;;;;;;;4.30;1.63;;;25.70;99.90;;;;;;5055100;28;20455;-83
2023/11/03 08:27:09;;;;;;;6.13;1.90;;;25.60;99.90;;;;;;5053732;28;20190;-84
2023/11/03 08:29:36;;;;;;;6.47;2.00;;;24.90;99.90;;;;;;5057391;28;20963;-82
2023/11/03 08:32:02;;;;;;;7.50;2.27;;;24.50;99.90;;;;;;5055482;28;20213;-81
2023/11/03 08:34:29;;;;;;;4.40;1.63;;;24.20;99.90;;;;;;5053590;28;20456;-83
2023/11/03 08:36:54;;;;;;;6.23;1.77;;;23.80;99.90;;;;;;5053632;28;20479;-84
2023/11/03 08:39:20;;;;;;;8.63;1.93;;;23.60;99.90;;;;;;5055796;28;20510;-82
2023/11/03 08:41:46;;;;;;;5.33;1.77;;;23.50;99.90;;;;;;5042667;28;20186;-84
2023/11/03 08:44:13;;;;;;;6.63;1.77;;;23.90;99.90;;;;;;5050003;28;20490;-84
2023/11/03 08:46:38;;;;;;;8.30;1.83;;;23.50;99.90;;;;;;5051341;28;20181;-83
2023/11/03 08:49:04;;;;;;;8.80;2.20;;;23.90;99.90;;;;;;5056642;28;20486;-82
2023/11/03 08:51:29;;;;;;;5.80;2.00;;;22.60;99.90;;;;;;5060999;28;20268;-83
2023/11/03 08:53:55;;;;;;;4.93;1.80;;;22.60;99.90;;;;;;5057982;28;20213;-84
2023/11/03 08:56:20;;;;;;;7.30;2.37;;;23.60;99.90;;;;;;5056783;28;20197;-83
2023/11/03 08:58:46;;;;;;;7.17;1.87;;;22.90;99.90;;;;;;5038626;28;20742;-83
2023/11/03 09:01:12;;;;;;;8.53;1.77;;;21.40;99.90;;;;;;5054504;28;20201;-83
2023/11/03 09:03:38;;;;;;;5.37;1.70;;;20.10;99.90;;;;;;5061640;28;20185;-83
2023/11/03 09:06:05;;;;;;;8.13;2.20;;;19.10;99.90;;;;;;5063428;28;20210;-84
2023/11/03 09:08:31;;;;;;;14.77;2.57;;;18.30;99.90;;;;;;5063577;28;20451;-84
2023/11/03 09:10:56;;;;;;;8.10;2.27;;;17.70;99.90;;;;;;5064854;28;20435;-83
2023/11/03 09:13:22;;;;;;;8.33;1.87;;;17.20;99.90;;;;;;5059959;28;20213;-81
2023/11/03 09:15:49;;;;;;;6.77;2.00;;;16.60;99.90;;;;;;5059623;28;20190;-81
2023/11/03 09:18:15;;;;;;;11.53;1.80;;;16.50;99.90;;;;;;5040087;28;20691;-82
2023/11/03 09:20:41;;;;;;;5.60;1.83;;;16.10;99.90;;;;;;5060934;28;20436;-82
2023/11/03 09:23:08;;;;;;;6.83;2.00;;;15.80;99.90;;;;;;5061922;28;20506;-83
2023/11/03 09:25:34;;;;;;;8.53;2.50;;;15.70;99.90;;;;;;5060445;28;20432;-81
2023/11/03 09:28:00;;;;;;;10.07;2.10;;;15.80;99.90;;;;;;5048432;28;20553;-83
2023/11/03 09:30:26;;;;;;;7.60;1.93;;;15.70;99.90;;;;;;5065228;28;20905;-83
2023/11/03 09:32:51;;;;;;;5.93;1.87;;;16.20;99.90;;;;;;5063236;28;20452;-81
2023/11/03 09:35:17;;;;;;;4.33;1.67;;;18.70;99.90;;;;;;5064626;28;20439;-82
2023/11/03 09:37:43;;;;;;;8.83;2.07;;;21.00;99.90;;;;;;5062621;28;20189;-84
2023/11/03 09:40:10;;;;;;;7.20;1.80;;;22.90;99.90;;;;;;5044477;28;20177;-83
2023/11/03 09:42:36;;;;;;;8.43;2.20;;;24.10;99.90;;;;;;5062678;28;20173;-85
2023/11/03 09:45:09;;;;;;;11.07;2.20;;;24.90;99.90;;;;;;5058892;28;20511;-84
2023/11/03 09:47:37;;;;;;;6.77;1.70;;;25.20;99.90;;;;;;5057605;28;20432;-82
2023/11/03 09:50:05;;;;;;;4.67;2.30;;;25.00;99.90;;;;;;5056181;28;20440;-84
2023/11/03 09:52:36;;;;;;;6.03;2.17;;;24.50;99.90;;;;;;5057509;28;20428;-83
2023/11/03 09:55:06;;;;;;;7.73;2.30;;;23.70;99.90;;;;;;5056610;28;20486;-85
2023/11/03 09:57:32;;;;;;;7.40;2.10;;;22.70;99.90;;;;;;5063823;28;20482;-84
2023/11/03 10:00:00;;;;;;;5.37;1.73;;;22.00;99.90;;;;;;5061875;28;20914;-84
2023/11/03 10:02:26;;;;;;;5.90;2.20;;;21.50;99.90;;;;;;5063224;28;20220;-84
2023/11/03 10:04:52;;;;;;;7.93;1.83;;;21.10;99.90;;;;;;5063460;28;20436;-84
2023/11/03 10:07:18;;;;;;;9.03;2.43;;;20.70;99.90;;;;;;5060306;28;20596;-84
2023/11/03 10:09:44;;;;;;;9.33;2.00;;;20.20;99.90;;;;;;5045082;28;20210;-84
2023/11/03 10:12:15;;;;;;;9.57;2.17;;;19.40;99.90;;;;;;5058272;28;20444;-83
2023/11/03 10:14:47;;;;;;;8.90;1.77;;;19.20;99.90;;;;;;5056738;28;20206;-82
2023/11/03 10:17:17;;;;;;;7.40;2.50;;;19.00;99.90;;;;;;5058581;28;20585;-82
2023/11/03 10:19:43;;;;;;;8.47;2.27;;;19.20;99.90;;;;;;5058848;28;20452;-83
2023/11/03 10:22:09;;;;;;;16.20;3.30;;;18.90;99.90;;;;;;5053928;28;20433;-84
2023/11/03 10:24:36;;;;;;;9.23;1.90;;;18.60;99.90;;;;;;5059963;28;20428;-84
2023/11/03 10:27:01;;;;;;;10.63;2.60;;;18.40;99.90;;;;;;5052831;28;20261;-83
2023/11/03 10:29:27;;;;;;;9.33;2.57;;;18.30;99.90;;;;;;5059168;28;20476;-82
2023/11/03 10:31:53;;;;;;;8.77;2.37;;;18.30;99.90;;;;;;5056215;28;20190;-85
2023/11/03 10:34:20;;;;;;;9.97;2.10;;;18.40;99.90;;;;;;5040277;28;20335;-84
2023/11/03 10:36:48;;;;;;;7.13;1.90;;;18.50;99.90;;;;;;5054894;28;20715;-83
2023/11/03 10:39:17;;;;;;;8.97;2.10;;;18.70;99.90;;;;;;5041365;28;20477;-83
2023/11/03 10:41:44;;;;;;;6.07;1.90;;;18.80;99.90;;;;;;5059665;28;20444;-84
2023/11/03 10:44:13;;;;;;;6.23;2.10;;;18.80;99.90;;;;;;5054887;28;20475;-83
2023/11/03 10:46:45;;;;;;;11.17;2.50;;;18.40;99.90;;;;;;5059887;28;20455;-83
2023/11/03 10:49:31;;;;;;;13.37;2.33;;;17.90;99.90;;;;;;5056589;28;20495;-83
2023/11/03 10:52:25;;;;;;;7.67;2.10;;;17.40;99.90;;;;;;5058547;28;20460;-83
2023/11/03 10:55:06;;;;;;;8.50;1.80;;;17.00;99.90;;;;;;5058817;28;20476;-83
2023/11/03 10:57:32;;;;;;;9.63;2.20;;;17.20;99.90;;;;;;5056336;28;20428;-82
2023/11/03 11:00:12;;;;;;;8.87;2.40;;;17.70;99.90;;;;;;5056124;28;20443;-84
2023/11/03 11:02:49;;;;;;;12.73;2.57;;;19.30;99.90;;;;;;5059361;28;20432;-84
2023/11/03 11:05:38;;;;;;;9.63;2.57;;;19.10;99.90;;;;;;5057995;28;20444;-82
2023/11/03 11:08:06;;;;;;;11.33;2.50;;;19.90;99.90;;;;;;5044132;28;20485;-84
2023/11/03 11:10:39;;;;;;;7.87;2.10;;;20.00;99.90;;;;;;5056077;28;20432;-84
2023/11/03 11:13:21;;;;;;;12.33;2.00;;;19.50;99.90;;;;;;5051778;28;20455;-84
2023/11/03 11:15:59;;;;;;;5.70;2.33;;;19.40;99.90;;;;;;5034297;28;20434;-84
2023/11/03 11:18:32;;;;;;;10.27;2.37;;;18.90;99.90;;;;;;5058193;28;20539;-83
2023/11/03 11:21:06;;;;;;;18.93;2.53;;;18.20;99.90;;;;;;5057912;28;20424;-83
2023/11/03 11:23:43;;;;;;;5.43;1.93;;;17.80;99.90;;;;;;5060867;28;20441;-83
2023/11/03 11:26:20;;;;;;;6.00;2.27;;;17.40;99.90;;;;;;5059534;28;20483;-84
2023/11/03 11:28:46;;;;;;;14.13;2.67;;;16.90;99.90;;;;;;5055409;28;20451;-81
2023/11/03 11:31:24;;;;;;;8.03;2.00;;;16.50;99.90;;;;;;5064997;28;20463;-84
2023/11/03 11:34:10;;;;;;;6.03;1.90;;;16.30;99.90;;;;;;5055312;28;20513;-83
2023/11/03 11:36:39;;;;;;;9.17;2.00;;;16.20;99.90;;;;;;5036922;28;20509;-83
2023/11/03 11:39:13;;;;;;;10.97;2.37;;;16.20;99.90;;;;;;5059772;28;20510;-82
2023/11/03 11:41:53;;;;;;;7.37;2.10;;;16.20;99.90;;;;;;5057680;28;20435;-83
2023/11/03 11:44:30;;;;;;;4.30;1.57;;;16.20;99.90;;;;;;5055035;28;20945;-82
2023/11/03 11:46:58;;;;;;;6.23;1.97;;;16.20;99.90;;;;;;5050526;28;20423;-83
2023/11/03 11:49:27;;;;;;;8.03;1.90;;;16.30;99.90;;;;;;5051403;28;20440;-82
2023/11/03 11:51:55;;;;;;;9.40;2.17;;;16.40;99.90;;;;;;5046042;28;20435;-82
2023/11/03 11:54:21;;;;;;;8.37;1.67;;;16.80;99.90;;;;;;5049453;28;20504;-82
2023/11/03 11:56:47;;;;;;;13.33;2.93;;;17.00;99.90;;;;;;5049268;28;20424;-82
2023/11/03 11:59:18;;;;;;;6.37;1.80;;;17.10;99.90;;;;;;5051020;28;20452;-82
2023/11/03 12:01:46;;;;;;;10.63;2.40;;;17.20;99.90;;;;;;5051745;28;20428;-83
2023/11/03 12:04:15;;;;;;;5.03;1.90;;;17.10;99.90;;;;;;5051030;28;20439;-81
2023/11/03 12:06:42;;;;;;;6.67;1.77;;;17.00;99.90;;;;;;5049310;28;20428;-82
2023/11/03 12:09:08;;;;;;;8.03;2.30;;;17.40;99.90;;;;;;5049892;28;20466;-82
2023/11/03 12:11:35;;;;;;;9.53;2.20;;;17.50;99.90;;;;;;5050042;28;20936;-81
2023/11/03 12:14:01;;;;;;;6.10;2.50;;;17.60;99.90;;;;;;5029626;28;20492;-82
2023/11/03 12:16:26;;;;;;;7.40;2.10;;;18.10;99.90;;;;;;5050198;28;20474;-82
2023/11/03 12:18:53;;;;;;;6.80;1.60;;;18.50;99.90;;;;;;5050103;28;20869;-84
2023/11/03 12:21:20;;;;;;;6.20;2.20;;;18.40;99.90;;;;;;5051194;28;20174;-82
2023/11/03 12:23:46;;;;;;;9.13;1.83;;;18.10;99.90;;;;;;5028944;28;20531;-83
2023/11/03 12:26:12;;;;;;;6.20;1.83;;;18.10;99.90;;;;;;5047782;28;20857;-84
2023/11/03 12:28:39;;;;;;;8.40;2.03;;;18.10;99.90;;;;;;5050871;28;20452;-84
2023/11/03 12:31:06;;;;;;;5.37;1.80;;;18.20;99.90;;;;;;5056453;28;20447;-82
2023/11/03 12:33:36;;;;;;;6.47;1.80;;;18.30;99.90;;;;;;5028884;28;20460;-82
2023/11/03 12:36:02;;;;;;;9.10;1.90;;;18.90;99.90;;;;;;5028947;28;20492;-82
2023/11/03 12:38:29;;;;;;;6.60;2.20;;;19.10;99.90;;;;;;5046482;28;20483;-82
2023/11/03 12:41:14;;;;;;;5.90;1.50;;;19.10;99.90;;;;;;5046185;28;20443;-82
2023/11/03 12:43:41;;;;;;;9.17;1.80;;;19.90;99.90;;;;;;5051697;28;20458;-84
2023/11/03 12:46:09;;;;;;;8.90;1.83;;;20.60;99.90;;;;;;5051252;28;20471;-84
2023/11/03 12:48:35;;;;;;;6.30;1.67;;;21.00;99.90;;;;;;5034492;28;20452;-84